sensor_id;sensor_type;location;lat;lon;timestamp;pressure;altitude;pressure_sealevel;temperature;humidity
64844;BME280;51310;52.198;5.422;2023-04-02T00:00:36;101052.44;;;4.76;100.00
64844;BME280;51310;52.198;5.422;2023-04-02T00:03:21;101054.97;;;4.76;100.00
64844;BME280;51310;52.198;5.422;2023-04-02T00:05:46;101054.63;;;4.73;100.00
64844;BME280;51310;52.198;5.422;2023-04-02T00:08:37;101064.22;;;4.68;100.00
64844;BME280;51310;52.198;5.422;2023-04-02T00:11:07;101064.63;;;4.71;100.00
64844;BME280;51310;52.198;5.422;2023-04-02T00:13:44;101066.78;;;4.68;100.00
64844;BME280;51310;52.198;5.422;2023-04-02T00:16:21;101084.28;;;4.72;100.00
64844;BME280;51310;52.198;5.422;2023-04-02T00:18:52;101087.91;;;4.67;100.00
64844;BME280;51310;52.198;5.422;2023-04-02T00:21:33;101084.97;;;4.64;100.00
64844;BME280;51310;52.198;5.422;2023-04-02T00:24:09;101086.59;;;4.64;100.00
64844;BME280;51310;52.198;5.422;2023-04-02T00:26:43;101092.81;;;4.66;100.00
64844;BME280;51310;52.198;5.422;2023-04-02T00:29:13;101099.34;;;4.64;100.00
64844;BME280;51310;52.198;5.422;2023-04-02T00:31:49;101102.44;;;4.61;100.00
64844;BME280;51310;52.198;5.422;2023-04-02T00:34:22;101099.53;;;4.58;100.00
64844;BME280;51310;52.198;5.422;2023-04-02T00:36:52;101106.84;;;4.62;100.00
64844;BME280;51310;52.198;5.422;2023-04-02T00:39:31;101109.19;;;4.61;100.00
64844;BME280;51310;52.198;5.422;2023-04-02T00:41:59;101111.16;;;4.56;100.00
64844;BME280;51310;52.198;5.422;2023-04-02T00:44:38;101118.81;;;4.56;100.00
64844;BME280;51310;52.198;5.422;2023-04-02T00:47:18;101126.13;;;4.60;100.00
64844;BME280;51310;52.198;5.422;2023-04-02T00:49:45;101131.34;;;4.55;100.00
64844;BME280;51310;52.198;5.422;2023-04-02T00:52:19;101128.44;;;4.51;100.00
64844;BME280;51310;52.198;5.422;2023-04-02T00:54:55;101120.38;;;4.48;100.00
64844;BME280;51310;52.198;5.422;2023-04-02T00:57:25;101146.44;;;4.53;100.00
64844;BME280;51310;52.198;5.422;2023-04-02T01:00:09;101140.25;;;4.51;100.00
64844;BME280;51310;52.198;5.422;2023-04-02T01:02:37;101149.53;;;4.50;100.00
64844;BME280;51310;52.198;5.422;2023-04-02T01:23:00;101182.78;;;4.45;100.00
64844;BME280;51310;52.198;5.422;2023-04-02T01:26:18;101193.94;;;4.45;100.00
64844;BME280;51310;52.198;5.422;2023-04-02T01:29:14;101185.31;;;4.38;100.00
64844;BME280;51310;52.198;5.422;2023-04-02T01:31:43;101184.59;;;4.39;100.00
64844;BME280;51310;52.198;5.422;2023-04-02T01:34:17;101190.94;;;4.35;100.00
64844;BME280;51310;52.198;5.422;2023-04-02T01:36:50;101193.47;;;4.35;100.00
64844;BME280;51310;52.198;5.422;2023-04-02T01:39:59;101202.88;;;4.29;100.00
64844;BME280;51310;52.198;5.422;2023-04-02T01:43:14;101205.06;;;4.26;100.00
64844;BME280;51310;52.198;5.422;2023-04-02T01:45:40;101210.28;;;4.20;100.00
64844;BME280;51310;52.198;5.422;2023-04-02T01:48:20;101220.16;;;4.24;100.00
64844;BME280;51310;52.198;5.422;2023-04-02T01:50:50;101219.78;;;4.21;100.00
64844;BME280;51310;52.198;5.422;2023-04-02T01:53:23;101225.19;;;4.17;100.00
64844;BME280;51310;52.198;5.422;2023-04-02T01:56:00;101231.31;;;4.12;100.00
64844;BME280;51310;52.198;5.422;2023-04-02T01:58:30;101242.59;;;4.14;100.00
64844;BME280;51310;52.198;5.422;2023-04-02T02:01:26;101246.91;;;4.08;100.00
64844;BME280;51310;52.198;5.422;2023-04-02T02:03:55;101255.59;;;4.03;100.00
64844;BME280;51310;52.198;5.422;2023-04-02T02:06:22;101252.16;;;4.02;100.00
64844;BME280;51310;52.198;5.422;2023-04-02T02:08:58;101250.63;;;3.97;100.00
64844;BME280;51310;52.198;5.422;2023-04-02T02:11:29;101268.91;;;3.87;100.00
64844;BME280;51310;52.198;5.422;2023-04-02T02:13:59;101265.03;;;3.84;100.00
64844;BME280;51310;52.198;5.422;2023-04-02T02:16:28;101260.19;;;3.73;100.00
64844;BME280;51310;52.198;5.422;2023-04-02T02:18:59;101271.50;;;3.75;100.00
64844;BME280;51310;52.198;5.422;2023-04-02T02:21:42;101285.13;;;3.75;100.00
64844;BME280;51310;52.198;5.422;2023-04-02T02:24:25;101283.72;;;3.64;100.00
64844;BME280;51310;52.198;5.422;2023-04-02T02:29:58;101305.81;;;3.58;100.00
64844;BME280;51310;52.198;5.422;2023-04-02T02:32:30;101305.22;;;3.54;100.00
64844;BME280;51310;52.198;5.422;2023-04-02T02:35:06;101328.66;;;3.51;100.00
64844;BME280;51310;52.198;5.422;2023-04-02T02:37:42;101291.00;;;3.48;100.00
64844;BME280;51310;52.198;5.422;2023-04-02T02:40:19;101315.22;;;3.52;100.00
64844;BME280;51310;52.198;5.422;2023-04-02T02:42:55;101321.91;;;3.52;100.00
64844;BME280;51310;52.198;5.422;2023-04-02T02:45:28;101322.53;;;3.43;100.00
64844;BME280;51310;52.198;5.422;2023-04-02T02:47:57;101328.75;;;3.45;100.00
64844;BME280;51310;52.198;5.422;2023-04-02T02:50:27;101331.09;;;3.44;100.00
64844;BME280;51310;52.198;5.422;2023-04-02T02:53:04;101335.06;;;3.42;100.00
64844;BME280;51310;52.198;5.422;2023-04-02T02:55:34;101329.97;;;3.42;100.00
64844;BME280;51310;52.198;5.422;2023-04-02T02:58:08;101340.84;;;3.41;100.00
64844;BME280;51310;52.198;5.422;2023-04-02T03:00:37;101348.31;;;3.39;100.00
64844;BME280;51310;52.198;5.422;2023-04-02T03:03:10;101356.84;;;3.40;100.00
64844;BME280;51310;52.198;5.422;2023-04-02T03:05:40;101361.94;;;3.40;100.00
64844;BME280;51310;52.198;5.422;2023-04-02T03:08:18;101367.84;;;3.33;100.00
64844;BME280;51310;52.198;5.422;2023-04-02T03:10:55;101372.19;;;3.34;100.00
64844;BME280;51310;52.198;5.422;2023-04-02T03:13:30;101374.75;;;3.34;100.00
64844;BME280;51310;52.198;5.422;2023-04-02T03:16:35;101369.88;;;3.23;100.00
64844;BME280;51310;52.198;5.422;2023-04-02T03:22:35;101385.72;;;3.27;100.00
64844;BME280;51310;52.198;5.422;2023-04-02T03:27:45;101395.69;;;3.26;100.00
64844;BME280;51310;52.198;5.422;2023-04-02T03:30:41;101404.97;;;3.25;100.00
64844;BME280;51310;52.198;5.422;2023-04-02T03:33:24;101401.28;;;3.23;100.00
64844;BME280;51310;52.198;5.422;2023-04-02T03:36:17;101414.22;;;3.25;100.00
64844;BME280;51310;52.198;5.422;2023-04-02T03:38:53;101420.72;;;3.23;100.00
64844;BME280;51310;52.198;5.422;2023-04-02T03:41:40;101422.66;;;3.18;100.00
64844;BME280;51310;52.198;5.422;2023-04-02T03:47:42;101433.13;;;3.14;100.00
64844;BME280;51310;52.198;5.422;2023-04-02T03:50:30;101438.28;;;3.08;100.00
64844;BME280;51310;52.198;5.422;2023-04-02T03:53:00;101440.84;;;3.08;100.00
64844;BME280;51310;52.198;5.422;2023-04-02T03:55:31;101453.56;;;3.08;100.00
64844;BME280;51310;52.198;5.422;2023-04-02T03:58:23;101454.91;;;3.12;100.00
64844;BME280;51310;52.198;5.422;2023-04-02T04:01:23;101467.69;;;3.06;100.00
64844;BME280;51310;52.198;5.422;2023-04-02T04:03:54;101470.66;;;3.10;100.00
64844;BME280;51310;52.198;5.422;2023-04-02T04:06:28;101473.78;;;3.01;100.00
64844;BME280;51310;52.198;5.422;2023-04-02T04:09:09;101477.03;;;3.00;100.00
64844;BME280;51310;52.198;5.422;2023-04-02T04:11:45;101482.19;;;2.95;100.00
64844;BME280;51310;52.198;5.422;2023-04-02T04:14:19;101480.16;;;2.92;100.00
64844;BME280;51310;52.198;5.422;2023-04-02T04:19:47;101504.97;;;2.87;100.00
64844;BME280;51310;52.198;5.422;2023-04-02T04:22:26;101510.31;;;2.83;100.00
64844;BME280;51310;52.198;5.422;2023-04-02T04:25:05;101513.38;;;2.81;100.00
64844;BME280;51310;52.198;5.422;2023-04-02T04:33:33;101528.59;;;2.62;100.00
64844;BME280;51310;52.198;5.422;2023-04-02T04:36:16;101525.16;;;2.62;100.00
64844;BME280;51310;52.198;5.422;2023-04-02T04:38:49;101550.63;;;2.56;100.00
64844;BME280;51310;52.198;5.422;2023-04-02T04:41:26;101549.72;;;2.56;100.00
64844;BME280;51310;52.198;5.422;2023-04-02T04:44:26;101555.56;;;2.49;100.00
64844;BME280;51310;52.198;5.422;2023-04-02T04:47:16;101565.59;;;2.42;100.00
64844;BME280;51310;52.198;5.422;2023-04-02T04:52:38;101569.50;;;2.16;100.00
64844;BME280;51310;52.198;5.422;2023-04-02T04:55:40;101590.25;;;1.95;100.00
64844;BME280;51310;52.198;5.422;2023-04-02T05:01:29;101592.56;;;1.63;100.00
64844;BME280;51310;52.198;5.422;2023-04-02T05:04:20;101605.03;;;1.62;100.00
64844;BME280;51310;52.198;5.422;2023-04-02T05:07:04;101613.38;;;1.55;100.00
64844;BME280;51310;52.198;5.422;2023-04-02T05:09:51;101617.59;;;1.49;100.00
64844;BME280;51310;52.198;5.422;2023-04-02T05:12:47;101627.78;;;1.38;100.00
64844;BME280;51310;52.198;5.422;2023-04-02T05:15:38;101632.00;;;1.26;100.00
64844;BME280;51310;52.198;5.422;2023-04-02T05:18:31;101638.94;;;1.16;100.00
64844;BME280;51310;52.198;5.422;2023-04-02T05:21:32;101649.56;;;1.13;100.00
64844;BME280;51310;52.198;5.422;2023-04-02T05:24:46;101654.44;;;1.06;100.00
64844;BME280;51310;52.198;5.422;2023-04-02T05:27:35;101658.81;;;1.01;100.00
64844;BME280;51310;52.198;5.422;2023-04-02T05:30:51;101658.63;;;0.94;100.00
64844;BME280;51310;52.198;5.422;2023-04-02T05:36:20;101681.91;;;0.86;100.00
64844;BME280;51310;52.198;5.422;2023-04-02T05:38:48;101691.81;;;0.79;100.00
64844;BME280;51310;52.198;5.422;2023-04-02T05:41:29;101687.69;;;0.79;100.00
64844;BME280;51310;52.198;5.422;2023-04-02T05:44:18;101695.06;;;0.78;100.00
64844;BME280;51310;52.198;5.422;2023-04-02T05:46:58;101709.81;;;0.75;100.00
64844;BME280;51310;52.198;5.422;2023-04-02T05:52:00;101706.34;;;0.69;100.00
64844;BME280;51310;52.198;5.422;2023-04-02T05:54:38;101721.78;;;0.65;100.00
64844;BME280;51310;52.198;5.422;2023-04-02T05:57:17;101718.81;;;0.61;100.00
64844;BME280;51310;52.198;5.422;2023-04-02T05:59:57;101727.09;;;0.60;100.00
64844;BME280;51310;52.198;5.422;2023-04-02T06:02:35;101731.69;;;0.57;100.00
64844;BME280;51310;52.198;5.422;2023-04-02T06:05:25;101730.31;;;0.59;100.00
64844;BME280;51310;52.198;5.422;2023-04-02T06:08:02;101738.59;;;0.70;100.00
64844;BME280;51310;52.198;5.422;2023-04-02T06:10:36;101748.72;;;0.75;100.00
64844;BME280;51310;52.198;5.422;2023-04-02T06:13:15;101754.00;;;0.88;100.00
64844;BME280;51310;52.198;5.422;2023-04-02T06:15:42;101766.91;;;0.90;100.00
64844;BME280;51310;52.198;5.422;2023-04-02T06:18:22;101781.19;;;0.89;100.00
64844;BME280;51310;52.198;5.422;2023-04-02T06:20:49;101791.13;;;0.93;100.00
64844;BME280;51310;52.198;5.422;2023-04-02T06:25:56;101793.63;;;0.99;100.00
64844;BME280;51310;52.198;5.422;2023-04-02T06:28:30;101793.84;;;1.00;100.00
64844;BME280;51310;52.198;5.422;2023-04-02T06:31:09;101800.75;;;1.07;100.00
64844;BME280;51310;52.198;5.422;2023-04-02T06:33:39;101815.72;;;1.06;100.00
64844;BME280;51310;52.198;5.422;2023-04-02T06:36:07;101818.72;;;1.20;100.00
64844;BME280;51310;52.198;5.422;2023-04-02T06:38:35;101823.78;;;1.14;100.00
64844;BME280;51310;52.198;5.422;2023-04-02T06:41:13;101830.00;;;1.16;100.00
64844;BME280;51310;52.198;5.422;2023-04-02T06:44:17;101836.94;;;1.17;100.00
64844;BME280;51310;52.198;5.422;2023-04-02T06:46:56;101830.72;;;1.21;100.00
64844;BME280;51310;52.198;5.422;2023-04-02T06:49:40;101831.84;;;1.12;100.00
64844;BME280;51310;52.198;5.422;2023-04-02T06:52:43;101836.94;;;1.12;100.00
64844;BME280;51310;52.198;5.422;2023-04-02T06:55:46;101856.28;;;1.28;100.00
64844;BME280;51310;52.198;5.422;2023-04-02T06:58:16;101852.38;;;1.30;100.00
64844;BME280;51310;52.198;5.422;2023-04-02T07:00:47;101859.72;;;1.23;100.00
64844;BME280;51310;52.198;5.422;2023-04-02T07:03:24;101860.44;;;1.22;100.00
64844;BME280;51310;52.198;5.422;2023-04-02T07:05:50;101878.41;;;1.29;100.00
64844;BME280;51310;52.198;5.422;2023-04-02T07:08:16;101881.41;;;1.32;100.00
64844;BME280;51310;52.198;5.422;2023-04-02T07:10:42;101881.66;;;1.28;100.00
64844;BME280;51310;52.198;5.422;2023-04-02T07:13:21;101900.31;;;1.29;100.00
64844;BME280;51310;52.198;5.422;2023-04-02T07:15:53;101901.69;;;1.32;100.00
64844;BME280;51310;52.198;5.422;2023-04-02T07:18:32;101891.56;;;1.32;100.00
64844;BME280;51310;52.198;5.422;2023-04-02T07:20:58;101913.44;;;1.37;100.00
64844;BME280;51310;52.198;5.422;2023-04-02T07:23:25;101920.34;;;1.55;100.00
64844;BME280;51310;52.198;5.422;2023-04-02T07:25:55;101921.97;;;1.55;100.00
64844;BME280;51310;52.198;5.422;2023-04-02T07:28:22;101919.00;;;1.40;100.00
64844;BME280;51310;52.198;5.422;2023-04-02T07:30:47;101921.50;;;1.46;100.00
64844;BME280;51310;52.198;5.422;2023-04-02T07:33:19;101927.53;;;1.41;100.00
64844;BME280;51310;52.198;5.422;2023-04-02T07:35:46;101934.41;;;1.42;100.00
64844;BME280;51310;52.198;5.422;2023-04-02T07:38:12;101943.88;;;1.37;100.00
64844;BME280;51310;52.198;5.422;2023-04-02T07:40:37;101951.50;;;1.37;100.00
64844;BME280;51310;52.198;5.422;2023-04-02T07:43:04;101946.91;;;1.40;100.00
64844;BME280;51310;52.198;5.422;2023-04-02T07:45:30;101957.94;;;1.47;100.00
64844;BME280;51310;52.198;5.422;2023-04-02T07:47:56;101965.34;;;1.28;100.00
64844;BME280;51310;52.198;5.422;2023-04-02T07:50:23;101967.19;;;1.40;100.00
64844;BME280;51310;52.198;5.422;2023-04-02T07:52:49;101962.09;;;1.35;100.00
64844;BME280;51310;52.198;5.422;2023-04-02T07:55:15;101969.50;;;1.39;100.00
64844;BME280;51310;52.198;5.422;2023-04-02T07:57:53;101972.25;;;1.40;100.00
64844;BME280;51310;52.198;5.422;2023-04-02T08:00:21;101972.50;;;1.36;100.00
64844;BME280;51310;52.198;5.422;2023-04-02T08:02:47;101980.56;;;1.45;100.00
64844;BME280;51310;52.198;5.422;2023-04-02T08:05:13;101980.31;;;1.43;100.00
64844;BME280;51310;52.198;5.422;2023-04-02T08:07:40;101979.88;;;1.40;100.00
64844;BME280;51310;52.198;5.422;2023-04-02T08:10:10;101974.34;;;1.60;100.00
64844;BME280;51310;52.198;5.422;2023-04-02T08:12:36;101982.41;;;1.52;100.00
64844;BME280;51310;52.198;5.422;2023-04-02T08:15:04;101990.47;;;1.60;100.00
64844;BME280;51310;52.198;5.422;2023-04-02T08:17:33;102001.06;;;1.47;100.00
64844;BME280;51310;52.198;5.422;2023-04-02T08:19:59;101999.69;;;1.49;100.00
64844;BME280;51310;52.198;5.422;2023-04-02T08:22:27;101996.00;;;1.52;100.00
64844;BME280;51310;52.198;5.422;2023-04-02T08:24:54;102007.06;;;1.64;100.00
64844;BME280;51310;52.198;5.422;2023-04-02T08:27:22;102003.13;;;1.72;100.00
64844;BME280;51310;52.198;5.422;2023-04-02T08:29:48;102010.28;;;1.80;100.00
64844;BME280;51310;52.198;5.422;2023-04-02T08:32:14;102014.47;;;1.79;100.00
64844;BME280;51310;52.198;5.422;2023-04-02T08:34:42;102024.16;;;1.54;100.00
64844;BME280;51310;52.198;5.422;2023-04-02T08:37:12;102040.28;;;1.71;100.00
64844;BME280;51310;52.198;5.422;2023-04-02T08:39:39;102035.00;;;1.75;100.00
64844;BME280;51310;52.198;5.422;2023-04-02T08:45:19;102040.03;;;1.53;100.00
64844;BME280;51310;52.198;5.422;2023-04-02T08:47:39;102045.59;;;1.67;100.00
64844;BME280;51310;52.198;5.422;2023-04-02T08:50:37;102043.28;;;1.63;100.00
64844;BME280;51310;52.198;5.422;2023-04-02T08:53:09;102054.81;;;1.55;100.00
64844;BME280;51310;52.198;5.422;2023-04-02T08:59:01;102069.13;;;1.89;100.00
64844;BME280;51310;52.198;5.422;2023-04-02T09:01:47;102069.59;;;1.86;100.00
64844;BME280;51310;52.198;5.422;2023-04-02T09:04:20;102076.03;;;1.73;100.00
64844;BME280;51310;52.198;5.422;2023-04-02T09:06:48;102076.53;;;1.93;100.00
64844;BME280;51310;52.198;5.422;2023-04-02T09:09:16;102082.94;;;2.13;100.00
64844;BME280;51310;52.198;5.422;2023-04-02T09:12:01;102075.56;;;1.92;100.00
64844;BME280;51310;52.198;5.422;2023-04-02T09:14:54;102080.22;;;2.12;100.00
64844;BME280;51310;52.198;5.422;2023-04-02T09:17:25;102079.22;;;2.22;100.00
64844;BME280;51310;52.198;5.422;2023-04-02T09:22:49;102087.50;;;2.50;100.00
64844;BME280;51310;52.198;5.422;2023-04-02T09:25:23;102094.09;;;2.83;100.00
64844;BME280;51310;52.198;5.422;2023-04-02T09:27:54;102091.81;;;2.79;100.00
64844;BME280;51310;52.198;5.422;2023-04-02T09:30:47;102099.41;;;2.84;100.00
64844;BME280;51310;52.198;5.422;2023-04-02T09:33:18;102106.72;;;3.05;100.00
64844;BME280;51310;52.198;5.422;2023-04-02T09:36:02;102104.31;;;3.24;100.00
64844;BME280;51310;52.198;5.422;2023-04-02T09:38:28;102114.34;;;3.05;100.00
64844;BME280;51310;52.198;5.422;2023-04-02T09:41:06;102110.06;;;2.76;100.00
64844;BME280;51310;52.198;5.422;2023-04-02T09:43:35;102129.19;;;2.91;100.00
64844;BME280;51310;52.198;5.422;2023-04-02T09:48:43;102126.59;;;3.08;100.00
64844;BME280;51310;52.198;5.422;2023-04-02T09:51:15;102110.13;;;3.23;100.00
64844;BME280;51310;52.198;5.422;2023-04-02T09:56:33;102126.34;;;3.12;100.00
64844;BME280;51310;52.198;5.422;2023-04-02T10:02:16;102123.69;;;3.35;100.00
64844;BME280;51310;52.198;5.422;2023-04-02T10:04:46;102131.53;;;3.36;100.00
64844;BME280;51310;52.198;5.422;2023-04-02T10:07:37;102135.78;;;3.65;100.00
64844;BME280;51310;52.198;5.422;2023-04-02T10:15:41;102148.97;;;3.98;100.00
64844;BME280;51310;52.198;5.422;2023-04-02T10:21:20;102170.38;;;4.17;100.00
64844;BME280;51310;52.198;5.422;2023-04-02T10:23:48;102172.91;;;4.17;100.00
64844;BME280;51310;52.198;5.422;2023-04-02T10:26:37;102167.50;;;4.27;100.00
64844;BME280;51310;52.198;5.422;2023-04-02T10:34:51;102168.63;;;4.29;100.00
64844;BME280;51310;52.198;5.422;2023-04-02T10:40:38;102168.53;;;4.40;100.00
64844;BME280;51310;52.198;5.422;2023-04-02T10:43:45;102182.91;;;4.64;100.00
64844;BME280;51310;52.198;5.422;2023-04-02T10:46:25;102177.63;;;4.62;100.00
64844;BME280;51310;52.198;5.422;2023-04-02T10:49:35;102177.22;;;4.78;100.00
64844;BME280;51310;52.198;5.422;2023-04-02T10:54:48;102174.28;;;5.11;100.00
64844;BME280;51310;52.198;5.422;2023-04-02T10:57:35;102175.50;;;4.65;100.00
64844;BME280;51310;52.198;5.422;2023-04-02T11:00:23;102180.72;;;4.54;100.00
64844;BME280;51310;52.198;5.422;2023-04-02T11:03:14;102174.56;;;4.89;100.00
64844;BME280;51310;52.198;5.422;2023-04-02T11:05:47;102187.41;;;5.02;100.00
64844;BME280;51310;52.198;5.422;2023-04-02T11:08:26;102198.56;;;5.21;100.00
64844;BME280;51310;52.198;5.422;2023-04-02T11:11:05;102195.47;;;5.05;100.00
64844;BME280;51310;52.198;5.422;2023-04-02T11:13:59;102200.16;;;5.02;100.00
64844;BME280;51310;52.198;5.422;2023-04-02T11:16:26;102201.97;;;5.03;100.00
64844;BME280;51310;52.198;5.422;2023-04-02T11:19:25;102204.25;;;5.07;100.00
64844;BME280;51310;52.198;5.422;2023-04-02T11:21:59;102198.91;;;5.29;100.00
64844;BME280;51310;52.198;5.422;2023-04-02T11:29:32;102208.63;;;5.32;100.00
64844;BME280;51310;52.198;5.422;2023-04-02T11:37:42;102214.00;;;5.46;100.00
64844;BME280;51310;52.198;5.422;2023-04-02T11:42:49;102227.44;;;5.51;100.00
64844;BME280;51310;52.198;5.422;2023-04-02T11:50:42;102229.88;;;5.75;100.00
64844;BME280;51310;52.198;5.422;2023-04-02T11:56:18;102234.50;;;5.78;100.00
64844;BME280;51310;52.198;5.422;2023-04-02T11:59:25;102233.41;;;5.88;100.00
64844;BME280;51310;52.198;5.422;2023-04-02T12:02:18;102237.28;;;5.79;100.00
64844;BME280;51310;52.198;5.422;2023-04-02T12:08:01;102243.22;;;6.04;100.00
64844;BME280;51310;52.198;5.422;2023-04-02T12:10:58;102244.69;;;5.96;100.00
64844;BME280;51310;52.198;5.422;2023-04-02T12:16:11;102245.41;;;6.26;100.00
64844;BME280;51310;52.198;5.422;2023-04-02T12:18:49;102256.47;;;6.32;100.00
64844;BME280;51310;52.198;5.422;2023-04-02T12:21:25;102245.66;;;6.41;100.00
64844;BME280;51310;52.198;5.422;2023-04-02T12:23:57;102263.09;;;6.56;100.00
64844;BME280;51310;52.198;5.422;2023-04-02T12:29:15;102277.31;;;6.54;100.00
64844;BME280;51310;52.198;5.422;2023-04-02T12:31:46;102271.09;;;6.77;100.00
64844;BME280;51310;52.198;5.422;2023-04-02T12:34:19;102267.41;;;6.88;93.56
64844;BME280;51310;52.198;5.422;2023-04-02T12:37:03;102278.25;;;6.80;100.00
64844;BME280;51310;52.198;5.422;2023-04-02T12:39:32;102270.78;;;6.69;98.33
64844;BME280;51310;52.198;5.422;2023-04-02T12:41:58;102260.88;;;6.77;100.00
64844;BME280;51310;52.198;5.422;2023-04-02T12:44:29;102273.47;;;6.76;98.54
64844;BME280;51310;52.198;5.422;2023-04-02T12:46:56;102280.81;;;6.80;100.00
64844;BME280;51310;52.198;5.422;2023-04-02T12:49:38;102273.56;;;7.22;100.00
64844;BME280;51310;52.198;5.422;2023-04-02T12:52:09;102273.88;;;7.17;84.63
64844;BME280;51310;52.198;5.422;2023-04-02T12:55:01;102276.75;;;7.13;77.46
64844;BME280;51310;52.198;5.422;2023-04-02T13:03:15;102280.97;;;7.13;83.61
64844;BME280;51310;52.198;5.422;2023-04-02T13:05:55;102286.44;;;7.54;85.78
64844;BME280;51310;52.198;5.422;2023-04-02T13:08:28;102295.28;;;7.18;77.31
64844;BME280;51310;52.198;5.422;2023-04-02T13:11:00;102280.13;;;7.19;78.66
64844;BME280;51310;52.198;5.422;2023-04-02T13:13:34;102283.47;;;7.38;80.46
64844;BME280;51310;52.198;5.422;2023-04-02T13:18:46;102279.44;;;7.53;87.19
64844;BME280;51310;52.198;5.422;2023-04-02T13:23:43;102287.34;;;7.55;87.93
64844;BME280;51310;52.198;5.422;2023-04-02T13:26:25;102287.94;;;7.59;86.38
64844;BME280;51310;52.198;5.422;2023-04-02T13:29:18;102279.94;;;7.64;79.01
64844;BME280;51310;52.198;5.422;2023-04-02T13:31:45;102288.09;;;7.87;83.27
64844;BME280;51310;52.198;5.422;2023-04-02T13:34:10;102294.13;;;7.87;80.39
64844;BME280;51310;52.198;5.422;2023-04-02T13:36:36;102282.88;;;7.79;86.18
64844;BME280;51310;52.198;5.422;2023-04-02T13:39:03;102293.41;;;7.88;86.85
64844;BME280;51310;52.198;5.422;2023-04-02T13:41:33;102298.59;;;7.75;80.67
64844;BME280;51310;52.198;5.422;2023-04-02T13:44:02;102288.16;;;7.94;85.81
64844;BME280;51310;52.198;5.422;2023-04-02T13:46:33;102290.34;;;7.91;89.26
64844;BME280;51310;52.198;5.422;2023-04-02T13:48:59;102288.16;;;7.94;89.08
64844;BME280;51310;52.198;5.422;2023-04-02T13:51:50;102298.88;;;7.84;75.00
64844;BME280;51310;52.198;5.422;2023-04-02T13:54:43;102300.97;;;7.94;79.33
64844;BME280;51310;52.198;5.422;2023-04-02T13:57:10;102301.50;;;7.91;79.37
64844;BME280;51310;52.198;5.422;2023-04-02T13:59:36;102302.88;;;7.82;80.07
64844;BME280;51310;52.198;5.422;2023-04-02T14:02:08;102308.38;;;7.85;78.28
64844;BME280;51310;52.198;5.422;2023-04-02T14:04:41;102311.56;;;8.10;78.36
64844;BME280;51310;52.198;5.422;2023-04-02T14:22:12;102325.78;;;8.20;70.42
64844;BME280;51310;52.198;5.422;2023-04-02T14:34:34;102327.06;;;8.17;77.38
64844;BME280;51310;52.198;5.422;2023-04-02T14:43:10;102328.56;;;8.22;71.56
64844;BME280;51310;52.198;5.422;2023-04-02T14:45:55;102335.81;;;8.32;72.08
64844;BME280;51310;52.198;5.422;2023-04-02T14:54:21;102347.53;;;7.97;82.19
64844;BME280;51310;52.198;5.422;2023-04-02T14:57:08;102359.13;;;8.20;74.78
64844;BME280;51310;52.198;5.422;2023-04-02T15:00:00;102358.63;;;8.23;71.20
64844;BME280;51310;52.198;5.422;2023-04-02T15:02:44;102353.22;;;8.14;75.33
64844;BME280;51310;52.198;5.422;2023-04-02T15:05:20;102349.28;;;8.24;77.72
64844;BME280;51310;52.198;5.422;2023-04-02T15:08:02;102353.84;;;8.39;80.95
64844;BME280;51310;52.198;5.422;2023-04-02T15:11:18;102354.25;;;8.42;86.17
64844;BME280;51310;52.198;5.422;2023-04-02T15:14:11;102359.41;;;8.29;81.82
64844;BME280;51310;52.198;5.422;2023-04-02T15:16:40;102360.75;;;8.33;82.57
64844;BME280;51310;52.198;5.422;2023-04-02T15:19:16;102371.75;;;8.32;78.65
64844;BME280;51310;52.198;5.422;2023-04-02T15:22:06;102375.97;;;8.18;77.01
64844;BME280;51310;52.198;5.422;2023-04-02T15:30:33;102385.75;;;8.08;76.83
64844;BME280;51310;52.198;5.422;2023-04-02T15:33:33;102382.66;;;8.11;77.33
64844;BME280;51310;52.198;5.422;2023-04-02T15:39:41;102369.66;;;8.29;79.12
64844;BME280;51310;52.198;5.422;2023-04-02T15:42:25;102386.00;;;8.30;79.89
64844;BME280;51310;52.198;5.422;2023-04-02T15:54:25;102391.78;;;8.21;80.29
64844;BME280;51310;52.198;5.422;2023-04-02T16:00:27;102394.03;;;8.26;80.80
64844;BME280;51310;52.198;5.422;2023-04-02T16:03:59;102385.91;;;8.22;81.23
64844;BME280;51310;52.198;5.422;2023-04-02T16:09:25;102388.84;;;8.06;80.42
64844;BME280;51310;52.198;5.422;2023-04-02T16:12:17;102393.16;;;7.99;82.98
64844;BME280;51310;52.198;5.422;2023-04-02T16:14:48;102390.28;;;8.04;82.31
64844;BME280;51310;52.198;5.422;2023-04-02T16:17:33;102404.63;;;8.09;84.45
64844;BME280;51310;52.198;5.422;2023-04-02T16:20:18;102413.38;;;8.04;79.26
64844;BME280;51310;52.198;5.422;2023-04-02T16:22:56;102414.56;;;8.13;82.70
64844;BME280;51310;52.198;5.422;2023-04-02T16:25:27;102413.84;;;8.14;82.34
64844;BME280;51310;52.198;5.422;2023-04-02T16:30:44;102416.03;;;7.98;83.03
64844;BME280;51310;52.198;5.422;2023-04-02T16:33:24;102422.28;;;8.00;87.15
64844;BME280;51310;52.198;5.422;2023-04-02T16:38:57;102425.53;;;8.12;78.59
64844;BME280;51310;52.198;5.422;2023-04-02T16:44:56;102430.28;;;8.09;82.41
64844;BME280;51310;52.198;5.422;2023-04-02T16:56:26;102448.63;;;7.99;76.15
64844;BME280;51310;52.198;5.422;2023-04-02T16:59:13;102463.63;;;7.96;78.25
64844;BME280;51310;52.198;5.422;2023-04-02T17:12:46;102479.22;;;7.85;79.47
64844;BME280;51310;52.198;5.422;2023-04-02T17:15:25;102485.78;;;7.83;81.46
64844;BME280;51310;52.198;5.422;2023-04-02T17:17:56;102489.25;;;7.83;81.02
64844;BME280;51310;52.198;5.422;2023-04-02T17:20:24;102491.72;;;7.76;83.08
64844;BME280;51310;52.198;5.422;2023-04-02T17:22:51;102498.59;;;7.70;85.27
64844;BME280;51310;52.198;5.422;2023-04-02T17:25:25;102505.13;;;7.68;83.82
64844;BME280;51310;52.198;5.422;2023-04-02T17:27:54;102499.81;;;7.66;84.36